Time;durP1;ratioP1;P1;durP2;ratioP2;P2;SDS_P1;SDS_P2;PMS_P1;PMS_P2;Temp;Humidity;BMP_temperature;BMP_pressure;BME280_temperature;BME280_humidity;BME280_pressure;Samples;Min_cycle;Max_cycle;Signal;HPM_P1;HPM_P2
2023/07/14 00:00:15;;;;;;;1.67;1.57;;;16.00;99.90;;;;;;5011488;28;20469;-75
2023/07/14 00:02:42;;;;;;;3.17;2.20;;;15.90;99.90;;;;;;5025055;28;20457;-74
2023/07/14 00:05:14;;;;;;;2.07;1.60;;;15.90;99.90;;;;;;5030515;28;20534;-74
2023/07/14 00:07:42;;;;;;;2.10;1.70;;;15.90;99.90;;;;;;5031490;28;20531;-74
2023/07/14 00:10:18;;;;;;;3.43;2.00;;;15.90;99.90;;;;;;5030938;28;20466;-74
2023/07/14 00:12:45;;;;;;;1.80;1.67;;;15.80;99.90;;;;;;5031559;28;20486;-74
2023/07/14 00:15:13;;;;;;;3.00;1.70;;;15.80;99.90;;;;;;5030567;28;20456;-76
2023/07/14 00:17:40;;;;;;;2.07;1.87;;;15.80;99.90;;;;;;5031008;28;20480;-77
2023/07/14 00:20:26;;;;;;;4.60;2.17;;;15.80;99.90;;;;;;5030643;28;20527;-75
2023/07/14 00:22:55;;;;;;;1.70;1.40;;;15.80;99.90;;;;;;5030966;28;20955;-74
2023/07/14 00:25:23;;;;;;;3.23;2.00;;;15.70;99.90;;;;;;5030282;28;20488;-74
2023/07/14 00:27:51;;;;;;;2.20;1.50;;;15.70;99.90;;;;;;5031016;28;20476;-74
2023/07/14 00:30:20;;;;;;;2.10;1.60;;;15.70;99.90;;;;;;5030573;28;20460;-74
2023/07/14 00:32:49;;;;;;;2.07;1.63;;;15.60;99.90;;;;;;5031173;28;20992;-74
2023/07/14 00:35:27;;;;;;;2.17;1.97;;;15.60;99.90;;;;;;5030214;28;20959;-74
2023/07/14 00:37:56;;;;;;;2.83;1.80;;;15.60;99.90;;;;;;5031039;28;21006;-74
2023/07/14 00:40:38;;;;;;;2.60;1.87;;;15.60;99.90;;;;;;5030671;28;20472;-75
2023/07/14 00:43:06;;;;;;;2.03;1.60;;;15.50;99.90;;;;;;5030612;28;20469;-74
2023/07/14 00:45:36;;;;;;;2.40;1.53;;;15.50;99.90;;;;;;5010644;28;20457;-74
2023/07/14 00:48:04;;;;;;;2.60;1.67;;;15.50;99.90;;;;;;5012504;28;21038;-74
2023/07/14 00:50:35;;;;;;;2.10;1.90;;;15.40;99.90;;;;;;5013634;28;20476;-74
2023/07/14 00:53:07;;;;;;;2.50;1.40;;;15.40;99.90;;;;;;5012577;28;20846;-74
2023/07/14 00:55:39;;;;;;;3.27;1.80;;;15.40;99.90;;;;;;5010831;28;20457;-74
2023/07/14 00:58:14;;;;;;;1.60;1.40;;;15.30;99.90;;;;;;5010547;28;20485;-74
2023/07/14 01:00:56;;;;;;;1.97;1.77;;;15.30;99.90;;;;;;5010238;28;20474;-74
2023/07/14 01:03:22;;;;;;;3.50;1.80;;;15.30;99.90;;;;;;5010229;28;20457;-74
2023/07/14 01:05:49;;;;;;;2.13;1.43;;;15.30;99.90;;;;;;5011231;28;20465;-74
2023/07/14 01:08:17;;;;;;;2.53;1.93;;;15.30;99.90;;;;;;5010782;28;20481;-74
2023/07/14 01:10:44;;;;;;;2.60;1.83;;;15.30;99.90;;;;;;5011420;28;20830;-74
2023/07/14 01:13:11;;;;;;;2.17;1.97;;;15.30;99.90;;;;;;5010871;28;21233;-74
2023/07/14 01:15:40;;;;;;;1.43;1.30;;;15.30;99.90;;;;;;5010861;28;20458;-75
2023/07/14 01:18:08;;;;;;;2.37;1.60;;;15.30;99.90;;;;;;5010984;28;20856;-74
2023/07/14 01:20:37;;;;;;;1.50;1.33;;;15.20;99.90;;;;;;5011158;28;20477;-74
2023/07/14 01:23:34;;;;;;;2.80;2.30;;;15.20;99.90;;;;;;5010600;28;20552;-74
2023/07/14 01:26:13;;;;;;;1.87;1.77;;;15.10;99.90;;;;;;5025140;28;20461;-74
2023/07/14 01:28:41;;;;;;;2.40;2.20;;;15.20;99.90;;;;;;5030400;28;20467;-74
2023/07/14 01:31:19;;;;;;;2.23;1.83;;;15.10;99.90;;;;;;5030343;28;20475;-74
2023/07/14 01:33:48;;;;;;;2.57;1.90;;;15.10;99.90;;;;;;5030253;28;20519;-75
2023/07/14 01:36:14;;;;;;;1.57;1.47;;;15.10;99.90;;;;;;5029912;28;20807;-74
2023/07/14 01:38:42;;;;;;;2.77;1.80;;;15.10;99.90;;;;;;5031830;28;20943;-74
2023/07/14 01:41:09;;;;;;;1.93;1.73;;;15.10;99.90;;;;;;5033223;28;20465;-74
2023/07/14 01:43:36;;;;;;;2.30;1.73;;;15.00;99.90;;;;;;5021144;28;20457;-74
2023/07/14 01:46:07;;;;;;;2.90;1.80;;;15.00;99.90;;;;;;5011769;28;20499;-74
2023/07/14 01:48:37;;;;;;;3.47;2.00;;;15.00;99.90;;;;;;5011894;28;21392;-74
2023/07/14 01:51:10;;;;;;;2.00;1.60;;;14.90;99.90;;;;;;5011506;28;20457;-74
2023/07/14 01:53:41;;;;;;;2.30;1.83;;;14.90;99.90;;;;;;5011170;28;20461;-74
2023/07/14 01:56:11;;;;;;;2.33;1.23;;;14.90;99.90;;;;;;5011167;28;20473;-74
2023/07/14 01:58:56;;;;;;;1.87;1.67;;;14.90;99.90;;;;;;5011335;28;20467;-74
2023/07/14 02:01:26;;;;;;;4.40;1.80;;;14.90;99.90;;;;;;5011121;28;20488;-74
2023/07/14 02:03:55;;;;;;;1.93;1.40;;;14.90;99.90;;;;;;5010599;28;20465;-74
2023/07/14 02:06:23;;;;;;;3.00;1.67;;;14.80;99.90;;;;;;5010108;28;20476;-74
2023/07/14 02:08:50;;;;;;;1.90;1.50;;;14.80;99.90;;;;;;5010531;28;20465;-74
2023/07/14 02:11:18;;;;;;;2.17;1.83;;;14.70;99.90;;;;;;5010588;28;20469;-74
2023/07/14 02:13:46;;;;;;;2.13;1.67;;;14.70;99.90;;;;;;5013214;28;20464;-74
2023/07/14 02:16:15;;;;;;;1.63;1.53;;;14.70;99.90;;;;;;5013510;28;20461;-74
2023/07/14 02:18:44;;;;;;;2.10;1.70;;;14.60;99.90;;;;;;5013992;28;20523;-74
2023/07/14 02:21:13;;;;;;;2.03;1.57;;;14.60;99.90;;;;;;5015555;28;20465;-74
2023/07/14 02:23:41;;;;;;;4.03;2.07;;;14.60;99.90;;;;;;5013991;28;20457;-74
2023/07/14 02:26:14;;;;;;;3.97;1.80;;;14.60;99.90;;;;;;5013692;28;20966;-76
2023/07/14 02:28:41;;;;;;;2.60;1.80;;;14.60;99.90;;;;;;5013467;28;20513;-74
2023/07/14 02:31:15;;;;;;;2.50;2.23;;;14.60;99.90;;;;;;5013187;28;20476;-74
2023/07/14 02:33:46;;;;;;;1.87;1.70;;;14.50;99.90;;;;;;5012943;28;20465;-74
2023/07/14 02:36:22;;;;;;;3.33;1.97;;;14.50;99.90;;;;;;5012809;28;20461;-74
2023/07/14 02:38:49;;;;;;;2.53;1.70;;;14.40;99.90;;;;;;5013165;28;20488;-74
2023/07/14 02:41:20;;;;;;;2.33;1.90;;;14.40;99.90;;;;;;5013022;28;20472;-74
2023/07/14 02:43:51;;;;;;;2.90;2.70;;;14.40;99.90;;;;;;5013081;28;20559;-74
2023/07/14 02:46:22;;;;;;;2.23;1.80;;;14.40;99.90;;;;;;5012438;28;20971;-74
2023/07/14 02:48:52;;;;;;;3.30;1.97;;;14.40;99.90;;;;;;5013145;28;20497;-74
2023/07/14 02:51:19;;;;;;;3.03;2.00;;;14.40;99.90;;;;;;5013135;28;20473;-75
2023/07/14 02:53:46;;;;;;;1.80;1.67;;;14.40;99.90;;;;;;5012736;28;20476;-74
2023/07/14 02:56:12;;;;;;;3.17;1.90;;;14.30;99.90;;;;;;5012227;28;20465;-74
2023/07/14 02:58:39;;;;;;;1.83;1.60;;;14.30;99.90;;;;;;5012723;28;20472;-74
2023/07/14 03:01:06;;;;;;;2.07;1.80;;;14.30;99.90;;;;;;5012819;28;20843;-75
2023/07/14 03:03:34;;;;;;;1.90;1.67;;;14.30;99.90;;;;;;5012379;28;20461;-74
2023/07/14 03:06:03;;;;;;;3.47;2.07;;;14.20;99.90;;;;;;5012446;28;20481;-76
2023/07/14 03:08:29;;;;;;;1.90;1.57;;;14.20;99.90;;;;;;5012330;28;20507;-76
2023/07/14 03:10:58;;;;;;;1.97;1.53;;;14.10;99.90;;;;;;5012874;28;20465;-75
2023/07/14 03:13:25;;;;;;;1.80;1.70;;;14.10;99.90;;;;;;5012293;28;20461;-75
2023/07/14 03:15:52;;;;;;;2.20;2.00;;;14.10;99.90;;;;;;5012276;28;20453;-75
2023/07/14 03:18:19;;;;;;;1.97;1.80;;;14.10;99.90;;;;;;5023637;28;20488;-75
2023/07/14 03:20:47;;;;;;;3.13;1.53;;;14.10;99.90;;;;;;5012278;28;20473;-75
2023/07/14 03:23:15;;;;;;;1.83;1.67;;;14.10;99.90;;;;;;5011980;28;20468;-75
2023/07/14 03:25:42;;;;;;;1.80;1.63;;;14.20;99.90;;;;;;5010757;28;20576;-75
2023/07/14 03:28:09;;;;;;;1.70;1.40;;;14.20;99.90;;;;;;5012119;28;20879;-75
2023/07/14 03:30:39;;;;;;;1.80;1.70;;;14.10;99.90;;;;;;5017147;28;20457;-76
2023/07/14 03:33:06;;;;;;;2.40;1.80;;;14.10;99.90;;;;;;5012483;28;20457;-75
2023/07/14 03:35:33;;;;;;;2.33;1.73;;;14.10;99.90;;;;;;5019626;28;20457;-74
2023/07/14 03:37:59;;;;;;;2.27;2.07;;;14.10;99.90;;;;;;5010538;28;20480;-74
2023/07/14 03:40:27;;;;;;;2.53;2.33;;;14.10;99.90;;;;;;5010422;28;20461;-74
2023/07/14 03:42:54;;;;;;;3.60;1.80;;;14.00;99.90;;;;;;5010826;28;20460;-74
2023/07/14 03:45:21;;;;;;;2.23;1.70;;;14.00;99.90;;;;;;5011104;28;20533;-74
2023/07/14 03:47:49;;;;;;;2.37;2.17;;;14.00;99.90;;;;;;5012021;28;20481;-74
2023/07/14 03:50:16;;;;;;;2.30;2.10;;;13.90;99.90;;;;;;5012555;28;20465;-74
2023/07/14 03:52:43;;;;;;;2.57;2.37;;;13.90;99.90;;;;;;5012508;28;20472;-74
2023/07/14 03:55:10;;;;;;;4.33;2.00;;;13.90;99.90;;;;;;5030479;28;21006;-73
2023/07/14 03:57:39;;;;;;;1.80;1.70;;;14.00;99.90;;;;;;5031289;28;20496;-73
2023/07/14 04:00:12;;;;;;;2.13;1.80;;;14.00;99.90;;;;;;5031349;28;20464;-74
2023/07/14 04:02:39;;;;;;;2.10;1.90;;;14.00;99.90;;;;;;5013456;28;20541;-73
2023/07/14 04:05:07;;;;;;;3.03;2.00;;;14.00;99.90;;;;;;5010906;28;20570;-73
2023/07/14 04:07:34;;;;;;;3.63;2.10;;;14.00;99.90;;;;;;5020597;28;20538;-73
2023/07/14 04:10:02;;;;;;;2.20;1.97;;;14.10;99.90;;;;;;5018596;28;20499;-73
2023/07/14 04:12:28;;;;;;;2.30;2.00;;;14.10;99.90;;;;;;5011615;28;20468;-73
2023/07/14 04:14:56;;;;;;;2.93;2.00;;;14.10;99.90;;;;;;5011228;28;20468;-73
2023/07/14 04:17:23;;;;;;;2.30;1.77;;;14.20;99.90;;;;;;5011351;28;21008;-73
2023/07/14 04:19:51;;;;;;;1.90;1.60;;;14.30;99.90;;;;;;5014353;28;20467;-73
2023/07/14 04:22:19;;;;;;;5.23;2.33;;;14.30;99.90;;;;;;5016268;28;20472;-73
2023/07/14 04:24:46;;;;;;;2.00;1.80;;;14.30;99.90;;;;;;5010855;28;20515;-73
2023/07/14 04:27:13;;;;;;;2.20;2.00;;;14.40;99.90;;;;;;5011191;28;20492;-74
2023/07/14 04:29:40;;;;;;;2.30;1.90;;;14.40;99.90;;;;;;5028947;28;20473;-73
2023/07/14 04:32:09;;;;;;;2.80;2.60;;;14.40;99.90;;;;;;5030768;28;20464;-73
2023/07/14 04:34:36;;;;;;;2.50;2.17;;;14.50;99.90;;;;;;5021501;28;20469;-74
2023/07/14 04:37:04;;;;;;;2.37;2.17;;;14.50;99.90;;;;;;5011079;28;20480;-74
2023/07/14 04:39:31;;;;;;;2.20;1.50;;;14.50;99.90;;;;;;5011056;28;20519;-73
2023/07/14 04:41:58;;;;;;;1.93;1.73;;;14.50;99.90;;;;;;5030715;28;20488;-73
2023/07/14 04:44:25;;;;;;;1.90;1.63;;;14.60;99.90;;;;;;5026615;28;20986;-74
2023/07/14 04:46:52;;;;;;;3.33;2.13;;;14.70;99.90;;;;;;5027877;28;20841;-74
2023/07/14 04:49:20;;;;;;;2.23;2.03;;;14.70;99.90;;;;;;5027892;28;20705;-73
2023/07/14 04:51:47;;;;;;;2.73;2.10;;;14.80;99.90;;;;;;5027841;28;20983;-74
2023/07/14 04:54:14;;;;;;;2.43;1.97;;;14.80;99.90;;;;;;5028291;28;20460;-74
2023/07/14 04:56:43;;;;;;;2.40;1.87;;;14.90;99.90;;;;;;5012675;28;20517;-74
2023/07/14 04:59:10;;;;;;;1.90;1.47;;;15.00;99.90;;;;;;5010601;28;20472;-73
2023/07/14 05:01:37;;;;;;;2.60;2.40;;;15.00;99.90;;;;;;5010460;28;20469;-73
2023/07/14 05:04:05;;;;;;;2.63;1.90;;;15.10;99.90;;;;;;5010364;28;20461;-73
2023/07/14 05:06:33;;;;;;;2.33;2.00;;;15.10;99.90;;;;;;5010384;28;20489;-73
2023/07/14 05:09:00;;;;;;;2.90;2.10;;;15.20;99.90;;;;;;5010883;28;20457;-74
2023/07/14 05:11:26;;;;;;;2.27;1.90;;;15.30;99.90;;;;;;5010723;28;20484;-73
2023/07/14 05:13:54;;;;;;;2.43;1.93;;;15.40;99.90;;;;;;5010280;28;20472;-73
2023/07/14 05:16:21;;;;;;;2.83;2.20;;;15.50;99.90;;;;;;5010096;28;20461;-73
2023/07/14 05:18:48;;;;;;;2.80;2.00;;;15.60;99.90;;;;;;5010504;28;20774;-73
2023/07/14 05:21:15;;;;;;;12.10;2.90;;;15.70;99.90;;;;;;5024077;28;20508;-74
2023/07/14 05:23:43;;;;;;;2.50;2.30;;;15.70;99.90;;;;;;5030629;28;20467;-74
2023/07/14 05:26:09;;;;;;;2.20;2.00;;;15.80;99.90;;;;;;5030141;28;20557;-74
2023/07/14 05:28:36;;;;;;;2.70;2.10;;;15.90;99.90;;;;;;5057919;23;20492;-88
2023/07/14 05:31:05;;;;;;;4.30;2.27;;;16.00;99.90;;;;;;5012796;28;20481;-87
2023/07/14 05:33:32;;;;;;;2.87;2.37;;;16.10;99.90;;;;;;5004494;28;20469;-89
2023/07/14 05:35:58;;;;;;;2.43;2.00;;;16.20;99.90;;;;;;5012588;28;20468;-87
2023/07/14 05:38:26;;;;;;;2.60;1.90;;;16.30;99.90;;;;;;5015519;28;20543;-88
2023/07/14 05:40:56;;;;;;;2.00;1.80;;;16.40;99.90;;;;;;5023688;28;20473;-87
2023/07/14 05:43:24;;;;;;;4.33;2.17;;;16.50;99.90;;;;;;5018149;28;20870;-88
2023/07/14 05:45:51;;;;;;;2.40;2.20;;;16.50;99.90;;;;;;5022413;28;20485;-87
2023/07/14 05:48:18;;;;;;;2.10;2.00;;;16.60;99.90;;;;;;5020849;28;20504;-86
2023/07/14 05:50:45;;;;;;;4.03;2.20;;;16.70;99.90;;;;;;5028974;28;20469;-90
2023/07/14 05:53:12;;;;;;;3.60;2.23;;;16.80;99.90;;;;;;5028077;28;20460;-93
2023/07/14 05:55:39;;;;;;;2.30;2.10;;;16.80;99.90;;;;;;5028131;28;20511;-92
2023/07/14 05:58:07;;;;;;;4.70;2.73;;;16.90;99.90;;;;;;5024819;28;20485;-92
2023/07/14 06:00:38;;;;;;;2.80;2.40;;;17.00;99.90;;;;;;5024574;28;20520;-92
2023/07/14 06:03:06;;;;;;;2.77;2.40;;;17.10;99.90;;;;;;5024854;28;20501;-92
2023/07/14 06:05:33;;;;;;;2.30;2.10;;;17.10;99.90;;;;;;5024185;28;20484;-93
2023/07/14 06:08:00;;;;;;;3.87;2.47;;;17.20;99.90;;;;;;5028146;28;20491;-92
2023/07/14 06:10:27;;;;;;;2.60;2.17;;;17.20;99.90;;;;;;5028680;28;20460;-92
2023/07/14 06:12:54;;;;;;;4.03;2.57;;;17.20;99.90;;;;;;5029906;28;20452;-92
2023/07/14 06:15:22;;;;;;;2.50;2.20;;;17.20;99.90;;;;;;5052553;28;20471;-94
2023/07/14 06:17:48;;;;;;;2.37;2.17;;;17.30;99.90;;;;;;5043651;28;20491;-93
2023/07/14 06:20:15;;;;;;;3.47;2.20;;;17.30;99.90;;;;;;5028245;28;20492;-92
2023/07/14 06:22:42;;;;;;;3.20;2.07;;;17.30;99.90;;;;;;5019617;28;20473;-92
2023/07/14 06:25:09;;;;;;;3.23;2.30;;;17.40;99.90;;;;;;5027382;28;20833;-92
2023/07/14 06:27:36;;;;;;;1.87;1.73;;;17.40;99.90;;;;;;5019249;28;20465;-92
2023/07/14 06:30:04;;;;;;;3.40;2.53;;;17.50;99.90;;;;;;5023077;28;20462;-91
2023/07/14 06:32:32;;;;;;;2.30;1.97;;;17.50;99.90;;;;;;5027519;28;20501;-92
2023/07/14 06:34:58;;;;;;;2.33;2.13;;;17.60;99.90;;;;;;5025314;28;20465;-92
2023/07/14 06:40:32;;;;;;;2.43;2.10;;;17.80;99.90;;;;;;5017323;28;20537;-91
2023/07/14 06:43:04;;;;;;;2.20;1.80;;;17.90;99.90;;;;;;5027599;28;20546;-90
2023/07/14 06:45:35;;;;;;;2.40;1.80;;;18.00;99.90;;;;;;5026850;28;20481;-92
2023/07/14 06:48:04;;;;;;;4.20;2.03;;;18.10;99.90;;;;;;5027246;28;20513;-91
2023/07/14 06:50:32;;;;;;;5.60;2.80;;;18.20;99.90;;;;;;5027431;28;20462;-93
2023/07/14 06:52:58;;;;;;;2.53;2.00;;;18.30;99.90;;;;;;5035108;28;20464;-90
2023/07/14 06:55:25;;;;;;;5.97;2.20;;;18.40;99.90;;;;;;5030193;28;20460;-90
2023/07/14 06:57:52;;;;;;;4.90;2.87;;;18.50;99.90;;;;;;5025903;28;20483;-91
2023/07/14 07:00:20;;;;;;;3.67;2.60;;;18.60;99.90;;;;;;5027454;28;20462;-91
2023/07/14 07:02:47;;;;;;;2.70;1.90;;;18.80;99.90;;;;;;5029223;28;20471;-90
2023/07/14 07:05:16;;;;;;;2.37;1.93;;;18.80;99.90;;;;;;5035587;28;20839;-91
2023/07/14 07:07:43;;;;;;;3.03;1.90;;;19.00;99.90;;;;;;5025618;28;20985;-91
2023/07/14 07:10:10;;;;;;;1.73;1.63;;;19.20;99.90;;;;;;5028313;28;20463;-91
2023/07/14 07:12:37;;;;;;;2.30;1.80;;;19.30;99.90;;;;;;5024520;28;20476;-90
2023/07/14 07:15:05;;;;;;;3.23;2.10;;;19.40;99.90;;;;;;5024983;28;20469;-89
2023/07/14 07:17:32;;;;;;;2.77;2.57;;;19.50;99.90;;;;;;5026363;28;20482;-90
2023/07/14 07:20:03;;;;;;;2.13;1.80;;;19.60;99.90;;;;;;5024062;28;20488;-89
2023/07/14 07:22:31;;;;;;;1.93;1.67;;;19.60;99.90;;;;;;5030160;28;21054;-90
2023/07/14 07:24:58;;;;;;;2.40;1.80;;;19.60;99.90;;;;;;5028749;28;20461;-91
2023/07/14 07:27:24;;;;;;;3.60;1.87;;;19.70;99.90;;;;;;5023619;28;20493;-90
2023/07/14 07:29:51;;;;;;;1.70;1.60;;;19.70;99.90;;;;;;5031917;28;20460;-90
2023/07/14 07:32:18;;;;;;;1.80;1.53;;;19.80;99.90;;;;;;5022174;28;20495;-90
2023/07/14 07:34:45;;;;;;;3.30;1.70;;;19.80;99.90;;;;;;5021784;28;20449;-90
2023/07/14 07:37:12;;;;;;;1.77;1.63;;;19.90;99.90;;;;;;5022185;28;20457;-90
2023/07/14 07:39:41;;;;;;;2.33;1.70;;;20.00;99.90;;;;;;5021928;28;20488;-90
2023/07/14 07:42:11;;;;;;;2.07;1.60;;;20.10;99.90;;;;;;5024510;28;20466;-90
2023/07/14 07:44:39;;;;;;;2.80;1.63;;;20.20;99.90;;;;;;5025033;28;20461;-89
2023/07/14 07:47:07;;;;;;;2.83;2.00;;;20.30;99.90;;;;;;5022012;28;20534;-90
2023/07/14 07:49:34;;;;;;;2.00;1.60;;;20.40;99.90;;;;;;5021555;28;20485;-90
2023/07/14 07:52:01;;;;;;;2.93;1.80;;;20.50;99.90;;;;;;5022881;28;20469;-90
2023/07/14 07:54:27;;;;;;;2.83;1.40;;;20.70;99.90;;;;;;5024655;28;20464;-90
2023/07/14 07:56:55;;;;;;;2.27;1.70;;;20.80;99.90;;;;;;5024037;28;20469;-89
2023/07/14 07:59:22;;;;;;;1.67;1.57;;;21.00;99.90;;;;;;5021036;28;20488;-90
2023/07/14 08:01:49;;;;;;;1.87;1.47;;;21.10;99.90;;;;;;5021310;28;20462;-89
2023/07/14 08:04:18;;;;;;;1.40;1.30;;;21.20;99.90;;;;;;5020719;28;20838;-90
2023/07/14 08:06:45;;;;;;;1.83;1.70;;;21.30;99.90;;;;;;5021033;28;20493;-90
2023/07/14 08:09:12;;;;;;;3.67;1.63;;;21.40;99.90;;;;;;5023675;28;20489;-90
2023/07/14 08:11:39;;;;;;;1.60;1.50;;;21.50;99.90;;;;;;5024035;28;20556;-90
2023/07/14 08:14:12;;;;;;;2.13;1.70;;;21.60;99.90;;;;;;5021788;28;20465;-89
2023/07/14 08:16:39;;;;;;;1.87;1.53;;;21.80;99.90;;;;;;5020953;28;20460;-88
2023/07/14 08:19:06;;;;;;;1.90;1.70;;;21.80;99.90;;;;;;5022741;28;20485;-90
2023/07/14 08:21:33;;;;;;;1.60;1.50;;;21.90;98.90;;;;;;5024377;28;20472;-90
2023/07/14 08:24:00;;;;;;;2.30;1.80;;;22.00;99.40;;;;;;5022542;28;20958;-90
2023/07/14 08:26:27;;;;;;;1.70;1.60;;;22.00;98.30;;;;;;5017447;28;20511;-90
2023/07/14 08:28:54;;;;;;;1.40;1.30;;;22.10;98.90;;;;;;5023744;28;21071;-90
2023/07/14 08:31:23;;;;;;;3.80;2.20;;;22.10;99.60;;;;;;5020706;28;20520;-89
2023/07/14 08:33:51;;;;;;;3.73;1.77;;;22.10;99.80;;;;;;5020795;28;20471;-89
2023/07/14 08:36:18;;;;;;;6.50;1.90;;;22.30;99.20;;;;;;5020460;28;20558;-90
2023/07/14 08:38:45;;;;;;;1.70;1.60;;;22.20;99.80;;;;;;5020716;28;20477;-90
2023/07/14 08:41:24;;;;;;;2.20;1.60;;;22.30;99.90;;;;;;5022977;28;20467;-90
2023/07/14 08:44:08;;;;;;;2.60;1.73;;;22.30;99.90;;;;;;5023870;28;20473;-90
2023/07/14 08:46:44;;;;;;;2.37;1.97;;;22.40;99.90;;;;;;5020646;28;20563;-89
2023/07/14 08:49:22;;;;;;;3.90;1.80;;;22.50;99.60;;;;;;5022409;28;20487;-90
2023/07/14 08:51:53;;;;;;;3.00;2.10;;;22.50;99.20;;;;;;5016789;28;20474;-91
2023/07/14 08:54:24;;;;;;;4.03;1.97;;;22.70;99.70;;;;;;5015427;28;20482;-90
2023/07/14 08:56:51;;;;;;;2.20;1.83;;;22.80;99.90;;;;;;5024131;28;20869;-90
2023/07/14 08:59:27;;;;;;;2.37;1.63;;;22.90;99.20;;;;;;5020359;28;20863;-91
2023/07/14 09:01:56;;;;;;;1.93;1.60;;;23.00;99.10;;;;;;5020342;28;20456;-90
2023/07/14 09:04:26;;;;;;;1.70;1.60;;;23.00;99.60;;;;;;5020082;28;20464;-90
2023/07/14 09:06:53;;;;;;;2.57;1.90;;;23.10;99.90;;;;;;5020301;28;20562;-90
2023/07/14 09:09:31;;;;;;;2.50;2.00;;;23.10;99.90;;;;;;5023738;28;20966;-90
2023/07/14 09:12:08;;;;;;;3.60;1.70;;;23.10;99.70;;;;;;5023407;28;20467;-90
2023/07/14 09:14:46;;;;;;;3.73;2.07;;;23.00;99.20;;;;;;5020068;28;20464;-90
2023/07/14 09:17:23;;;;;;;2.47;1.77;;;23.00;99.40;;;;;;5022346;28;20459;-90
2023/07/14 09:20:17;;;;;;;2.03;1.70;;;22.90;98.70;;;;;;5023950;28;20467;-90
2023/07/14 09:22:51;;;;;;;2.00;1.70;;;22.80;99.30;;;;;;5019785;28;20469;-90
2023/07/14 09:25:24;;;;;;;2.33;2.00;;;22.90;99.90;;;;;;5026817;28;20956;-91
2023/07/14 09:27:52;;;;;;;1.50;1.40;;;22.90;99.90;;;;;;5027270;28;20510;-90
2023/07/14 09:30:21;;;;;;;2.53;1.80;;;23.00;98.50;;;;;;5024575;28;20969;-90
2023/07/14 09:32:52;;;;;;;2.50;1.80;;;23.00;97.60;;;;;;5024569;28;20472;-90
2023/07/14 09:35:21;;;;;;;2.30;1.60;;;23.10;99.30;;;;;;5027012;28;20479;-90
2023/07/14 09:37:53;;;;;;;3.70;1.50;;;23.20;98.70;;;;;;5027549;28;20480;-89
2023/07/14 09:40:24;;;;;;;5.63;1.70;;;23.30;99.00;;;;;;5024499;28;20464;-90
2023/07/14 09:42:53;;;;;;;2.10;1.90;;;23.30;98.90;;;;;;5024298;28;20496;-90
2023/07/14 09:45:22;;;;;;;2.13;1.93;;;23.30;99.70;;;;;;5032222;28;20457;-90
2023/07/14 09:47:55;;;;;;;1.70;1.60;;;23.30;96.80;;;;;;5023932;28;20477;-89
2023/07/14 09:50:23;;;;;;;2.10;1.60;;;23.30;96.60;;;;;;5026947;28;20471;-90
2023/07/14 09:52:54;;;;;;;2.03;1.70;;;23.20;96.40;;;;;;5027616;28;20554;-90
2023/07/14 09:55:21;;;;;;;1.57;1.47;;;23.20;97.40;;;;;;5024157;28;20467;-89
2023/07/14 09:57:50;;;;;;;2.30;1.73;;;23.20;96.90;;;;;;5023994;28;20481;-90
2023/07/14 10:00:21;;;;;;;1.90;1.60;;;23.10;96.50;;;;;;5025829;28;20469;-90
2023/07/14 10:03:03;;;;;;;2.07;1.60;;;23.20;98.10;;;;;;5027526;28;20467;-90
2023/07/14 10:05:44;;;;;;;3.07;2.10;;;23.20;96.60;;;;;;5027555;28;20477;-90
2023/07/14 10:08:26;;;;;;;2.27;1.93;;;23.20;96.90;;;;;;5025396;28;20560;-90
2023/07/14 10:10:55;;;;;;;2.90;2.10;;;23.20;97.00;;;;;;5023878;28;20461;-90
2023/07/14 10:13:27;;;;;;;2.10;1.73;;;23.20;99.70;;;;;;5026397;28;20532;-90
2023/07/14 10:15:57;;;;;;;2.00;1.60;;;23.30;99.20;;;;;;5026875;28;20467;-90
2023/07/14 10:18:28;;;;;;;1.53;1.43;;;23.20;97.20;;;;;;5023783;28;20493;-90
2023/07/14 10:20:58;;;;;;;1.97;1.70;;;23.20;96.90;;;;;;5024306;28;20493;-89
2023/07/14 10:23:25;;;;;;;4.67;1.83;;;23.30;95.80;;;;;;5027876;28;20469;-90
2023/07/14 10:25:54;;;;;;;3.00;1.80;;;23.30;96.40;;;;;;5039148;28;20521;-90
2023/07/14 10:28:27;;;;;;;2.83;1.60;;;23.30;96.90;;;;;;5039226;28;20491;-90
2023/07/14 10:31:01;;;;;;;1.97;1.77;;;23.40;96.20;;;;;;5023420;28;20472;-90
2023/07/14 10:33:41;;;;;;;1.60;1.40;;;23.40;96.90;;;;;;5022563;28;20472;-89
2023/07/14 10:36:10;;;;;;;2.07;1.87;;;23.50;99.90;;;;;;5023136;28;20547;-90
2023/07/14 10:38:43;;;;;;;1.90;1.63;;;23.60;99.90;;;;;;5026281;28;20487;-89
2023/07/14 10:41:12;;;;;;;2.07;1.70;;;23.70;99.70;;;;;;5025346;28;20468;-89
2023/07/14 10:43:44;;;;;;;4.43;2.10;;;23.70;99.50;;;;;;5022715;28;20474;-90
2023/07/14 10:46:16;;;;;;;1.63;1.53;;;23.70;98.20;;;;;;5023315;28;20469;-90
2023/07/14 10:48:51;;;;;;;2.80;1.63;;;23.80;98.50;;;;;;5025909;28;20996;-90
2023/07/14 10:51:28;;;;;;;2.77;1.73;;;23.80;99.00;;;;;;5024235;28;20477;-89
2023/07/14 10:54:00;;;;;;;2.70;2.13;;;23.80;99.00;;;;;;5023024;28;20466;-90
2023/07/14 10:56:30;;;;;;;1.63;1.53;;;23.80;99.20;;;;;;5025125;28;20468;-90
2023/07/14 10:59:03;;;;;;;2.50;1.83;;;23.80;99.00;;;;;;5026153;28;20493;-90
2023/07/14 11:01:36;;;;;;;1.80;1.70;;;23.80;98.70;;;;;;5022254;28;20467;-90
2023/07/14 11:04:16;;;;;;;1.53;1.43;;;23.80;99.50;;;;;;5024140;28;20490;-92
2023/07/14 11:06:49;;;;;;;2.00;1.80;;;23.80;99.90;;;;;;5024149;28;20493;-91
2023/07/14 11:09:15;;;;;;;2.17;1.97;;;23.80;99.90;;;;;;5022175;23;20503;-69
2023/07/14 11:11:50;;;;;;;1.83;1.50;;;23.80;99.90;;;;;;5012745;28;20458;-69
2023/07/14 11:14:30;;;;;;;2.20;1.63;;;23.70;99.60;;;;;;5011824;28;20837;-69
2023/07/14 11:17:06;;;;;;;2.97;2.00;;;23.70;99.10;;;;;;5012692;28;20486;-69
2023/07/14 11:19:51;;;;;;;1.77;1.60;;;23.70;98.50;;;;;;5012336;28;20449;-69
2023/07/14 11:22:33;;;;;;;2.87;1.70;;;23.70;96.60;;;;;;5012256;28;20462;-70
2023/07/14 11:25:13;;;;;;;2.00;1.80;;;23.70;97.40;;;;;;5011817;28;20559;-70
2023/07/14 11:30:14;;;;;;;1.43;1.33;;;23.80;97.40;;;;;;4970662;28;20563;-73
2023/07/14 11:32:49;;;;;;;2.23;1.60;;;23.80;98.00;;;;;;4973222;28;20481;-73
2023/07/14 11:35:29;;;;;;;5.13;1.50;;;23.80;97.40;;;;;;4972571;28;21024;-71
2023/07/14 11:38:17;;;;;;;1.70;1.60;;;23.90;98.50;;;;;;4972707;28;20831;-72
2023/07/14 11:40:46;;;;;;;2.40;1.53;;;24.10;99.00;;;;;;4973589;28;20468;-71
2023/07/14 11:43:19;;;;;;;3.50;1.60;;;24.20;97.60;;;;;;4973335;28;20472;-72
2023/07/14 11:45:48;;;;;;;2.53;1.87;;;24.30;98.50;;;;;;4972581;28;20960;-71
2023/07/14 11:48:24;;;;;;;1.80;1.70;;;24.30;99.90;;;;;;4974268;28;20495;-71
2023/07/14 11:51:07;;;;;;;1.57;1.47;;;24.30;99.90;;;;;;4979343;28;20494;-72
2023/07/14 11:53:34;;;;;;;1.73;1.53;;;24.30;97.30;;;;;;4981402;28;20477;-72
2023/07/14 11:56:24;;;;;;;2.00;1.80;;;24.40;97.60;;;;;;4980582;28;20477;-72
2023/07/14 11:59:04;;;;;;;2.17;1.50;;;24.40;98.60;;;;;;4972777;28;20811;-72
2023/07/14 12:01:32;;;;;;;2.17;2.00;;;24.50;98.50;;;;;;4981797;28;20501;-72
2023/07/14 12:04:21;;;;;;;4.23;1.53;;;24.60;96.50;;;;;;4972185;28;20861;-72
2023/07/14 12:06:51;;;;;;;2.37;1.57;;;24.70;94.00;;;;;;4985767;28;20488;-72
2023/07/14 12:09:19;;;;;;;1.63;1.47;;;24.70;96.10;;;;;;4975032;28;20469;-72
2023/07/14 12:11:51;;;;;;;1.93;1.60;;;24.70;96.50;;;;;;4977660;28;20472;-73
2023/07/14 12:14:30;;;;;;;1.67;1.43;;;24.70;97.60;;;;;;4991926;28;20463;-72
2023/07/14 12:16:58;;;;;;;1.77;1.63;;;24.80;96.30;;;;;;4979169;28;20514;-72
2023/07/14 12:19:26;;;;;;;1.53;1.40;;;24.90;96.70;;;;;;5013320;23;20512;-72
2023/07/14 12:22:07;;;;;;;1.80;1.70;;;24.90;96.40;;;;;;5002930;28;20471;-73
2023/07/14 12:25:05;;;;;;;1.63;1.50;;;25.00;95.30;;;;;;5089503;22;20486;-91
2023/07/14 12:30:36;;;;;;;2.13;1.83;;;25.30;98.10;;;;;;4999088;28;20466;-91
2023/07/14 12:36:33;;;;;;;1.80;1.70;;;25.50;93.80;;;;;;4988814;28;20454;-91
2023/07/14 12:45:41;;;;;;;1.70;1.60;;;26.00;95.60;;;;;;4996730;28;20473;-92
2023/07/14 12:48:12;;;;;;;1.73;1.60;;;26.20;96.90;;;;;;4997570;28;20485;-92
2023/07/14 12:51:15;;;;;;;1.90;1.80;;;26.20;97.30;;;;;;4999806;28;20982;-90
2023/07/14 12:53:43;;;;;;;2.80;1.40;;;26.30;96.70;;;;;;4994102;28;20556;-91
2023/07/14 12:56:15;;;;;;;2.53;1.70;;;26.30;97.20;;;;;;4998767;28;20459;-90
2023/07/14 12:58:43;;;;;;;1.83;1.67;;;26.50;97.00;;;;;;4999489;28;20491;-91
2023/07/14 13:01:10;;;;;;;1.80;1.70;;;26.60;95.10;;;;;;5001562;28;20454;-90
2023/07/14 13:03:40;;;;;;;1.80;1.67;;;26.80;96.80;;;;;;5006374;28;20462;-91
2023/07/14 13:06:22;;;;;;;2.13;1.60;;;26.90;94.30;;;;;;5002297;28;20517;-92
2023/07/14 13:09:01;;;;;;;1.60;1.47;;;26.90;94.40;;;;;;5003017;28;20517;-91
2023/07/14 13:11:45;;;;;;;3.20;1.90;;;27.10;96.10;;;;;;5002837;28;20469;-91
2023/07/14 13:15:03;;;;;;;;;;;;;;;;;;;;;
2023/07/14 13:20:10;;;;;;;3.30;2.40;;;26.80;94.40;;;;;;5014385;23;21284;-71
2023/07/14 13:22:37;;;;;;;2.60;1.60;;;26.80;95.70;;;;;;5027257;28;20468;-70
2023/07/14 13:25:17;;;;;;;2.97;2.23;;;26.90;91.80;;;;;;5028983;28;20608;-71